sensor_id;sensor_type;location;lat;lon;timestamp;pressure;altitude;pressure_sealevel;temperature;humidity
40596;BME280;26304;48.794;9.820;2022-12-18T00:01:37;97270.16;;;13.51;50.26
40596;BME280;26304;48.794;9.820;2022-12-18T00:07:20;97286.75;;;13.46;50.32
40596;BME280;26304;48.794;9.820;2022-12-18T00:13:02;97285.88;;;13.42;50.86
40596;BME280;26304;48.794;9.820;2022-12-18T00:18:46;97277.28;;;13.33;52.15
40596;BME280;26304;48.794;9.820;2022-12-18T00:24:29;97290.94;;;13.30;51.90
40596;BME280;26304;48.794;9.820;2022-12-18T00:30:12;97290.94;;;13.30;51.25
40596;BME280;26304;48.794;9.820;2022-12-18T00:36:00;97287.09;;;13.27;52.31
40596;BME280;26304;48.794;9.820;2022-12-18T00:41:42;97288.19;;;13.17;52.77
40596;BME280;26304;48.794;9.820;2022-12-18T00:47:42;97291.28;;;13.11;53.35
40596;BME280;26304;48.794;9.820;2022-12-18T00:53:26;97286.69;;;13.16;51.38
40596;BME280;26304;48.794;9.820;2022-12-18T00:59:08;97300.97;;;13.10;53.20
40596;BME280;26304;48.794;9.820;2022-12-18T01:04:51;97288.38;;;13.03;53.26
40596;BME280;26304;48.794;9.820;2022-12-18T01:10:34;97285.31;;;13.01;53.86
40596;BME280;26304;48.794;9.820;2022-12-18T01:16:17;97286.84;;;13.02;53.33
40596;BME280;26304;48.794;9.820;2022-12-18T01:22:00;97285.19;;;12.98;53.84
40596;BME280;26304;48.794;9.820;2022-12-18T01:27:43;97278.28;;;12.93;53.73
40596;BME280;26304;48.794;9.820;2022-12-18T01:33:26;97281.19;;;12.92;54.34
40596;BME280;26304;48.794;9.820;2022-12-18T01:39:11;97294.53;;;12.90;54.58
40596;BME280;26304;48.794;9.820;2022-12-18T01:45:02;97304.53;;;12.88;54.19
40596;BME280;26304;48.794;9.820;2022-12-18T01:50:45;97317.44;;;12.84;52.69
40596;BME280;26304;48.794;9.820;2022-12-18T01:56:27;97310.22;;;12.81;54.10
40596;BME280;26304;48.794;9.820;2022-12-18T02:02:11;97313.59;;;12.82;52.91
40596;BME280;26304;48.794;9.820;2022-12-18T02:08:02;97303.31;;;12.77;54.20
40596;BME280;26304;48.794;9.820;2022-12-18T02:13:53;97299.16;;;12.76;54.26
40596;BME280;26304;48.794;9.820;2022-12-18T02:19:46;97292.56;;;12.69;54.76
40596;BME280;26304;48.794;9.820;2022-12-18T02:25:44;97293.66;;;12.68;54.46
40596;BME280;26304;48.794;9.820;2022-12-18T02:31:34;97309.13;;;12.65;54.66
40596;BME280;26304;48.794;9.820;2022-12-18T02:37:19;97305.78;;;12.64;54.19
40596;BME280;26304;48.794;9.820;2022-12-18T02:43:07;97312.53;;;12.65;53.84
40596;BME280;26304;48.794;9.820;2022-12-18T02:48:54;97321.28;;;12.61;54.74
40596;BME280;26304;48.794;9.820;2022-12-18T02:55:00;97312.50;;;12.57;55.01
40596;BME280;26304;48.794;9.820;2022-12-18T03:00:52;97312.50;;;12.57;54.97
40596;BME280;26304;48.794;9.820;2022-12-18T03:06:42;97318.66;;;12.52;55.63
40596;BME280;26304;48.794;9.820;2022-12-18T03:12:30;97343.66;;;12.53;53.51
40596;BME280;26304;48.794;9.820;2022-12-18T03:18:16;97330.16;;;12.51;55.51
40596;BME280;26304;48.794;9.820;2022-12-18T03:24:03;97339.66;;;12.47;55.48
40596;BME280;26304;48.794;9.820;2022-12-18T03:29:51;97332.91;;;12.46;54.99
40596;BME280;26304;48.794;9.820;2022-12-18T03:35:38;97345.63;;;12.47;54.96
40596;BME280;26304;48.794;9.820;2022-12-18T03:41:29;97339.97;;;12.37;55.25
40596;BME280;26304;48.794;9.820;2022-12-18T03:47:16;97334.75;;;12.37;55.28
40596;BME280;26304;48.794;9.820;2022-12-18T03:53:05;97345.78;;;12.33;55.07
40596;BME280;26304;48.794;9.820;2022-12-18T03:58:53;97340.56;;;12.33;55.46
40596;BME280;26304;48.794;9.820;2022-12-18T04:04:38;97339.50;;;12.34;54.59
40596;BME280;26304;48.794;9.820;2022-12-18T04:10:21;97341.66;;;13.20;52.34
40596;BME280;26304;48.794;9.820;2022-12-18T04:16:06;97342.16;;;14.29;49.71
40596;BME280;26304;48.794;9.820;2022-12-18T04:21:50;97332.00;;;14.78;49.49
40596;BME280;26304;48.794;9.820;2022-12-18T04:27:32;97328.91;;;14.97;48.84
40596;BME280;26304;48.794;9.820;2022-12-18T04:33:16;97339.09;;;15.44;48.39
40596;BME280;26304;48.794;9.820;2022-12-18T04:38:58;97342.84;;;15.80;47.45
40596;BME280;26304;48.794;9.820;2022-12-18T04:44:41;97346.22;;;15.81;47.68
40596;BME280;26304;48.794;9.820;2022-12-18T04:50:24;97351.03;;;15.79;48.09
40596;BME280;26304;48.794;9.820;2022-12-18T04:56:09;97359.72;;;15.58;48.34
40596;BME280;26304;48.794;9.820;2022-12-18T05:01:52;97364.13;;;15.33;48.55
40596;BME280;26304;48.794;9.820;2022-12-18T05:07:35;97359.19;;;15.53;48.55
40596;BME280;26304;48.794;9.820;2022-12-18T05:13:18;97363.47;;;16.44;46.38
40596;BME280;26304;48.794;9.820;2022-12-18T05:19:00;97359.19;;;17.20;45.12
40596;BME280;26304;48.794;9.820;2022-12-18T05:24:44;97366.63;;;17.78;44.17
40596;BME280;26304;48.794;9.820;2022-12-18T05:30:26;97361.91;;;18.00;43.80
40596;BME280;26304;48.794;9.820;2022-12-18T05:36:10;97360.94;;;18.44;42.64
40596;BME280;26304;48.794;9.820;2022-12-18T05:41:54;97363.81;;;18.74;42.43
40596;BME280;26304;48.794;9.820;2022-12-18T05:47:36;97358.78;;;19.04;42.53
40596;BME280;26304;48.794;9.820;2022-12-18T05:53:20;97354.19;;;19.01;43.38
40596;BME280;26304;48.794;9.820;2022-12-18T05:59:03;97352.09;;;19.11;43.02
40596;BME280;26304;48.794;9.820;2022-12-18T06:04:46;97360.47;;;18.77;43.96
40596;BME280;26304;48.794;9.820;2022-12-18T06:10:28;97363.50;;;18.40;44.43
40596;BME280;26304;48.794;9.820;2022-12-18T06:16:12;97368.94;;;17.96;45.63
40596;BME280;26304;48.794;9.820;2022-12-18T06:21:54;97371.72;;;17.71;46.02
40596;BME280;26304;48.794;9.820;2022-12-18T06:27:39;97377.56;;;17.96;46.30
40596;BME280;26304;48.794;9.820;2022-12-18T06:33:26;97375.47;;;18.02;46.19
40596;BME280;26304;48.794;9.820;2022-12-18T06:39:09;97369.00;;;18.51;45.55
40596;BME280;26304;48.794;9.820;2022-12-18T06:44:51;97383.09;;;19.17;44.44
40596;BME280;26304;48.794;9.820;2022-12-18T06:50:35;97385.72;;;19.17;45.27
40596;BME280;26304;48.794;9.820;2022-12-18T06:56:17;97391.75;;;19.60;44.52
40596;BME280;26304;48.794;9.820;2022-12-18T07:02:00;97404.03;;;19.72;44.54
40596;BME280;26304;48.794;9.820;2022-12-18T07:07:43;97395.72;;;19.93;43.92
40596;BME280;26304;48.794;9.820;2022-12-18T07:13:26;97405.88;;;19.72;44.36
40596;BME280;26304;48.794;9.820;2022-12-18T07:19:08;97407.03;;;19.28;45.41
40596;BME280;26304;48.794;9.820;2022-12-18T07:24:52;97412.31;;;18.89;46.31
40596;BME280;26304;48.794;9.820;2022-12-18T07:30:36;97421.66;;;18.51;46.86
40596;BME280;26304;48.794;9.820;2022-12-18T07:36:19;97446.56;;;18.22;47.54
40596;BME280;26304;48.794;9.820;2022-12-18T07:42:03;97450.00;;;18.06;47.24
40596;BME280;26304;48.794;9.820;2022-12-18T07:48:04;97447.44;;;17.94;47.98
40596;BME280;26304;48.794;9.820;2022-12-18T07:53:46;97446.31;;;17.79;47.72
40596;BME280;26304;48.794;9.820;2022-12-18T07:59:30;97451.19;;;17.65;48.05
40596;BME280;26304;48.794;9.820;2022-12-18T08:05:13;97450.47;;;17.52;47.86
40596;BME280;26304;48.794;9.820;2022-12-18T08:10:55;97446.81;;;17.40;47.84
40596;BME280;26304;48.794;9.820;2022-12-18T08:16:39;97438.97;;;17.28;49.02
40596;BME280;26304;48.794;9.820;2022-12-18T08:22:21;97436.41;;;17.16;49.65
40596;BME280;26304;48.794;9.820;2022-12-18T08:28:04;97436.41;;;17.16;48.22
40596;BME280;26304;48.794;9.820;2022-12-18T08:33:49;97430.28;;;17.12;48.02
40596;BME280;26304;48.794;9.820;2022-12-18T08:39:32;97435.75;;;17.06;47.81
40596;BME280;26304;48.794;9.820;2022-12-18T08:45:15;97450.88;;;16.97;48.34
40596;BME280;26304;48.794;9.820;2022-12-18T08:51:00;97446.50;;;17.01;48.54
40596;BME280;26304;48.794;9.820;2022-12-18T08:56:42;97440.94;;;17.03;48.82
40596;BME280;26304;48.794;9.820;2022-12-18T09:02:24;97429.22;;;17.00;48.58
40596;BME280;26304;48.794;9.820;2022-12-18T09:08:08;97434.47;;;17.00;48.57
40596;BME280;26304;48.794;9.820;2022-12-18T09:13:52;97442.81;;;17.02;48.79
40596;BME280;26304;48.794;9.820;2022-12-18T09:19:34;97443.78;;;16.98;49.22
40596;BME280;26304;48.794;9.820;2022-12-18T09:25:18;97436.66;;;16.98;49.21
40596;BME280;26304;48.794;9.820;2022-12-18T09:31:05;97425.25;;;17.06;48.69
40596;BME280;26304;48.794;9.820;2022-12-18T09:36:48;97421.47;;;16.92;49.34
40596;BME280;26304;48.794;9.820;2022-12-18T09:42:32;97417.97;;;16.75;49.19
40596;BME280;26304;48.794;9.820;2022-12-18T09:48:18;97415.63;;;16.33;48.46
40596;BME280;26304;48.794;9.820;2022-12-18T09:54:04;97418.81;;;16.26;49.24
40596;BME280;26304;48.794;9.820;2022-12-18T09:59:53;97433.56;;;16.19;49.68
40596;BME280;26304;48.794;9.820;2022-12-18T10:05:42;97425.81;;;16.10;50.24
40596;BME280;26304;48.794;9.820;2022-12-18T10:11:35;97417.38;;;16.04;50.21
40596;BME280;26304;48.794;9.820;2022-12-18T10:17:28;97409.16;;;15.93;50.76
40596;BME280;26304;48.794;9.820;2022-12-18T10:23:20;97405.47;;;15.94;50.73
40596;BME280;26304;48.794;9.820;2022-12-18T10:29:08;97410.28;;;15.92;50.21
40596;BME280;26304;48.794;9.820;2022-12-18T10:34:56;97405.22;;;15.87;50.43
40596;BME280;26304;48.794;9.820;2022-12-18T10:40:49;97409.16;;;15.81;50.76
40596;BME280;26304;48.794;9.820;2022-12-18T10:46:31;97416.03;;;15.86;51.07
40596;BME280;26304;48.794;9.820;2022-12-18T10:52:18;97399.53;;;15.85;50.20
40596;BME280;26304;48.794;9.820;2022-12-18T10:58:16;97416.84;;;16.36;50.17
40596;BME280;26304;48.794;9.820;2022-12-18T11:04:08;97428.84;;;16.37;51.10
40596;BME280;26304;48.794;9.820;2022-12-18T11:10:03;97424.47;;;16.53;51.95
40596;BME280;26304;48.794;9.820;2022-12-18T11:15:46;97422.13;;;17.45;49.30
40596;BME280;26304;48.794;9.820;2022-12-18T11:21:29;97414.78;;;18.11;47.85
40596;BME280;26304;48.794;9.820;2022-12-18T11:27:17;97406.97;;;18.50;47.02
40596;BME280;26304;48.794;9.820;2022-12-18T11:33:03;97393.91;;;18.73;46.48
40596;BME280;26304;48.794;9.820;2022-12-18T11:38:49;97394.81;;;19.20;46.38
40596;BME280;26304;48.794;9.820;2022-12-18T11:44:38;97405.13;;;19.48;45.83
40596;BME280;26304;48.794;9.820;2022-12-18T11:50:24;97396.63;;;19.58;46.14
40596;BME280;26304;48.794;9.820;2022-12-18T11:56:21;97378.66;;;19.87;45.87
40596;BME280;26304;48.794;9.820;2022-12-18T12:02:26;97380.09;;;20.08;45.88
40596;BME280;26304;48.794;9.820;2022-12-18T12:08:20;97365.22;;;20.23;45.70
40596;BME280;26304;48.794;9.820;2022-12-18T12:14:34;97370.63;;;20.33;45.28
40596;BME280;26304;48.794;9.820;2022-12-18T12:20:25;97350.91;;;20.54;45.34
40596;BME280;26304;48.794;9.820;2022-12-18T12:26:14;97348.13;;;20.74;44.86
40596;BME280;26304;48.794;9.820;2022-12-18T12:32:07;97344.53;;;20.89;45.13
40596;BME280;26304;48.794;9.820;2022-12-18T12:38:04;97351.75;;;20.92;45.04
40596;BME280;26304;48.794;9.820;2022-12-18T12:43:48;97342.31;;;20.95;45.24
40596;BME280;26304;48.794;9.820;2022-12-18T12:49:32;97339.81;;;21.05;45.23
40596;BME280;26304;48.794;9.820;2022-12-18T12:55:20;97347.47;;;21.18;45.28
40596;BME280;26304;48.794;9.820;2022-12-18T13:01:14;97348.31;;;21.26;45.23
40596;BME280;26304;48.794;9.820;2022-12-18T13:07:03;97341.94;;;21.30;45.04
40596;BME280;26304;48.794;9.820;2022-12-18T13:12:54;97339.34;;;21.37;45.27
40596;BME280;26304;48.794;9.820;2022-12-18T13:18:48;97345.94;;;21.51;44.87
40596;BME280;26304;48.794;9.820;2022-12-18T13:24:32;97350.16;;;21.59;44.90
40596;BME280;26304;48.794;9.820;2022-12-18T13:30:46;97355.75;;;21.54;45.20
40596;BME280;26304;48.794;9.820;2022-12-18T13:36:31;97350.06;;;21.48;45.19
40596;BME280;26304;48.794;9.820;2022-12-18T13:42:39;97342.13;;;21.48;45.27
40596;BME280;26304;48.794;9.820;2022-12-18T13:48:49;97332.84;;;21.31;46.31
40596;BME280;26304;48.794;9.820;2022-12-18T13:54:34;97338.88;;;20.87;47.25
40596;BME280;26304;48.794;9.820;2022-12-18T14:00:24;97332.97;;;19.83;44.84
40596;BME280;26304;48.794;9.820;2022-12-18T14:06:11;97331.09;;;19.60;44.82
40596;BME280;26304;48.794;9.820;2022-12-18T14:11:55;97329.41;;;19.49;45.41
40596;BME280;26304;48.794;9.820;2022-12-18T14:18:01;97333.31;;;19.58;45.41
40596;BME280;26304;48.794;9.820;2022-12-18T14:23:46;97341.50;;;20.00;45.26
40596;BME280;26304;48.794;9.820;2022-12-18T14:29:30;97351.72;;;21.26;43.58
40596;BME280;26304;48.794;9.820;2022-12-18T14:35:13;97352.06;;;21.62;43.43
40596;BME280;26304;48.794;9.820;2022-12-18T14:41:01;97357.41;;;21.73;42.96
40596;BME280;26304;48.794;9.820;2022-12-18T14:46:45;97351.59;;;22.05;42.67
40596;BME280;26304;48.794;9.820;2022-12-18T14:52:31;97349.94;;;21.82;43.23
40596;BME280;26304;48.794;9.820;2022-12-18T14:58:15;97358.56;;;21.31;44.61
40596;BME280;26304;48.794;9.820;2022-12-18T15:04:01;97348.13;;;21.08;45.13
40596;BME280;26304;48.794;9.820;2022-12-18T15:10:01;97369.47;;;20.61;45.91
40596;BME280;26304;48.794;9.820;2022-12-18T15:15:48;97375.91;;;20.60;45.80
40596;BME280;26304;48.794;9.820;2022-12-18T15:21:32;97363.25;;;20.46;45.61
40596;BME280;26304;48.794;9.820;2022-12-18T15:27:23;97361.38;;;20.47;45.41
40596;BME280;26304;48.794;9.820;2022-12-18T15:33:24;97360.66;;;20.50;45.55
40596;BME280;26304;48.794;9.820;2022-12-18T15:39:11;97353.38;;;20.40;45.86
40596;BME280;26304;48.794;9.820;2022-12-18T15:44:53;97350.41;;;20.45;45.67
40596;BME280;26304;48.794;9.820;2022-12-18T15:50:37;97358.66;;;20.40;45.90
40596;BME280;26304;48.794;9.820;2022-12-18T15:56:25;97359.56;;;20.24;46.07
40596;BME280;26304;48.794;9.820;2022-12-18T16:02:26;97356.56;;;19.99;46.49
40596;BME280;26304;48.794;9.820;2022-12-18T16:08:11;97354.03;;;19.80;47.29
40596;BME280;26304;48.794;9.820;2022-12-18T16:13:53;97347.44;;;19.70;47.62
40596;BME280;26304;48.794;9.820;2022-12-18T16:19:36;97345.41;;;19.59;47.33
40596;BME280;26304;48.794;9.820;2022-12-18T16:25:25;97327.13;;;19.47;47.65
40596;BME280;26304;48.794;9.820;2022-12-18T16:31:08;97343.50;;;19.37;47.99
40596;BME280;26304;48.794;9.820;2022-12-18T16:36:51;97337.72;;;19.51;47.99
40596;BME280;26304;48.794;9.820;2022-12-18T16:42:37;97346.63;;;19.19;48.17
40596;BME280;26304;48.794;9.820;2022-12-18T16:48:23;97329.97;;;19.15;48.32
40596;BME280;26304;48.794;9.820;2022-12-18T16:54:07;97324.72;;;19.15;48.12
40596;BME280;26304;48.794;9.820;2022-12-18T16:59:51;97321.94;;;19.08;48.16
40596;BME280;26304;48.794;9.820;2022-12-18T17:05:34;97315.50;;;19.05;48.38
40596;BME280;26304;48.794;9.820;2022-12-18T17:11:19;97318.88;;;19.06;48.52
40596;BME280;26304;48.794;9.820;2022-12-18T17:17:04;97309.91;;;18.87;48.59
40596;BME280;26304;48.794;9.820;2022-12-18T17:22:47;97307.41;;;18.95;48.46
40596;BME280;26304;48.794;9.820;2022-12-18T17:28:30;97309.97;;;18.72;49.29
40596;BME280;26304;48.794;9.820;2022-12-18T17:40:22;97307.53;;;18.63;49.72
40596;BME280;26304;48.794;9.820;2022-12-18T17:46:05;97319.59;;;18.64;49.68
40596;BME280;26304;48.794;9.820;2022-12-18T17:52:06;97319.31;;;18.69;49.34
40596;BME280;26304;48.794;9.820;2022-12-18T17:57:51;97313.66;;;18.67;49.73
40596;BME280;26304;48.794;9.820;2022-12-18T18:03:35;97313.41;;;18.76;49.29
40596;BME280;26304;48.794;9.820;2022-12-18T18:09:20;97307.41;;;18.56;49.68
40596;BME280;26304;48.794;9.820;2022-12-18T18:15:02;97311.91;;;18.55;50.29
40596;BME280;26304;48.794;9.820;2022-12-18T18:20:45;97311.19;;;18.58;50.88
40596;BME280;26304;48.794;9.820;2022-12-18T18:26:29;97300.31;;;18.60;50.24
40596;BME280;26304;48.794;9.820;2022-12-18T18:32:12;97293.97;;;18.61;51.01
40596;BME280;26304;48.794;9.820;2022-12-18T18:37:54;97298.81;;;18.78;51.38
40596;BME280;26304;48.794;9.820;2022-12-18T18:43:38;97290.84;;;18.55;52.12
40596;BME280;26304;48.794;9.820;2022-12-18T18:49:21;97277.88;;;18.46;51.58
40596;BME280;26304;48.794;9.820;2022-12-18T18:55:05;97276.91;;;18.35;50.91
40596;BME280;26304;48.794;9.820;2022-12-18T19:00:59;97275.03;;;18.16;51.50
40596;BME280;26304;48.794;9.820;2022-12-18T19:06:41;97257.47;;;18.04;52.40
40596;BME280;26304;48.794;9.820;2022-12-18T19:12:26;97253.53;;;18.14;52.49
40596;BME280;26304;48.794;9.820;2022-12-18T19:18:27;97241.84;;;18.11;52.86
40596;BME280;26304;48.794;9.820;2022-12-18T19:24:10;97240.59;;;18.05;54.08
40596;BME280;26304;48.794;9.820;2022-12-18T19:29:52;97233.09;;;17.88;53.78
40596;BME280;26304;48.794;9.820;2022-12-18T19:35:36;97236.78;;;17.87;53.59
40596;BME280;26304;48.794;9.820;2022-12-18T19:41:19;97258.09;;;17.82;55.12
40596;BME280;26304;48.794;9.820;2022-12-18T19:47:02;97262.53;;;17.77;54.27
40596;BME280;26304;48.794;9.820;2022-12-18T19:52:46;97256.44;;;17.73;54.77
40596;BME280;26304;48.794;9.820;2022-12-18T19:58:28;97259.31;;;17.68;54.09
40596;BME280;26304;48.794;9.820;2022-12-18T20:04:11;97261.19;;;17.68;55.27
40596;BME280;26304;48.794;9.820;2022-12-18T20:09:54;97244.22;;;17.65;55.32
40596;BME280;26304;48.794;9.820;2022-12-18T20:15:37;97253.66;;;17.50;54.07
40596;BME280;26304;48.794;9.820;2022-12-18T20:21:19;97240.41;;;16.55;45.80
40596;BME280;26304;48.794;9.820;2022-12-18T20:27:03;97234.16;;;15.66;39.58
40596;BME280;26304;48.794;9.820;2022-12-18T20:32:46;97232.06;;;15.22;38.29
40596;BME280;26304;48.794;9.820;2022-12-18T20:38:28;97223.19;;;14.89;37.28
40596;BME280;26304;48.794;9.820;2022-12-18T20:44:14;97212.09;;;14.38;37.63
40596;BME280;26304;48.794;9.820;2022-12-18T20:49:57;97209.34;;;15.14;39.92
40596;BME280;26304;48.794;9.820;2022-12-18T20:55:41;97198.56;;;15.40;40.61
40596;BME280;26304;48.794;9.820;2022-12-18T21:01:27;97182.63;;;15.45;42.51
40596;BME280;26304;48.794;9.820;2022-12-18T21:07:12;97174.22;;;15.52;43.83
40596;BME280;26304;48.794;9.820;2022-12-18T21:12:54;97182.94;;;15.43;44.58
40596;BME280;26304;48.794;9.820;2022-12-18T21:18:38;97191.47;;;15.40;45.54
40596;BME280;26304;48.794;9.820;2022-12-18T21:24:21;97176.41;;;15.37;46.43
40596;BME280;26304;48.794;9.820;2022-12-18T21:30:05;97184.16;;;15.34;46.88
40596;BME280;26304;48.794;9.820;2022-12-18T21:35:49;97196.38;;;15.30;47.42
40596;BME280;26304;48.794;9.820;2022-12-18T21:41:31;97191.13;;;15.30;47.33
40596;BME280;26304;48.794;9.820;2022-12-18T21:47:31;97171.50;;;15.23;47.70
40596;BME280;26304;48.794;9.820;2022-12-18T21:53:15;97166.91;;;15.20;48.12
40596;BME280;26304;48.794;9.820;2022-12-18T21:58:57;97163.84;;;15.18;48.37
40596;BME280;26304;48.794;9.820;2022-12-18T22:04:40;97168.88;;;15.11;48.91
40596;BME280;26304;48.794;9.820;2022-12-18T22:10:23;97181.97;;;15.11;48.50
40596;BME280;26304;48.794;9.820;2022-12-18T22:16:06;97177.72;;;15.06;48.97
40596;BME280;26304;48.794;9.820;2022-12-18T22:21:48;97185.44;;;15.03;49.03
40596;BME280;26304;48.794;9.820;2022-12-18T22:27:33;97189.50;;;15.00;49.45
40596;BME280;26304;48.794;9.820;2022-12-18T22:33:15;97184.16;;;14.97;49.55
40596;BME280;26304;48.794;9.820;2022-12-18T22:38:57;97185.88;;;14.93;50.33
40596;BME280;26304;48.794;9.820;2022-12-18T22:44:41;97172.69;;;14.89;50.25
40596;BME280;26304;48.794;9.820;2022-12-18T22:50:24;97167.44;;;14.89;49.97
40596;BME280;26304;48.794;9.820;2022-12-18T22:56:06;97155.34;;;14.84;50.11
40596;BME280;26304;48.794;9.820;2022-12-18T23:01:51;97155.97;;;14.81;50.55
40596;BME280;26304;48.794;9.820;2022-12-18T23:07:33;97155.09;;;14.77;50.81
40596;BME280;26304;48.794;9.820;2022-12-18T23:13:16;97152.03;;;14.75;50.51
40596;BME280;26304;48.794;9.820;2022-12-18T23:18:59;97150.41;;;14.70;50.80
40596;BME280;26304;48.794;9.820;2022-12-18T23:24:43;97158.91;;;14.67;51.52
40596;BME280;26304;48.794;9.820;2022-12-18T23:30:25;97141.13;;;14.61;51.08
40596;BME280;26304;48.794;9.820;2022-12-18T23:36:10;97156.34;;;14.59;51.50
40596;BME280;26304;48.794;9.820;2022-12-18T23:41:52;97137.94;;;14.55;51.69
40596;BME280;26304;48.794;9.820;2022-12-18T23:47:35;97140.88;;;14.53;51.65
40596;BME280;26304;48.794;9.820;2022-12-18T23:53:18;97139.97;;;14.49;52.12
40596;BME280;26304;48.794;9.820;2022-12-18T23:59:01;97141.25;;;14.43;52.01
